地図

経路データ

SID SEASON NUMBER BASIN SUBBASIN NAME ISO_TIME NATURE LAT LON WMO_WIND WMO_PRES WMO_AGENCY TRACK_TYPE DIST2LAND LANDFALL IFLAG USA_AGENCY USA_ATCF_ID USA_LAT USA_LON USA_RECORD USA_STATUS USA_WIND USA_PRES USA_SSHS USA_R34_NE USA_R34_SE USA_R34_SW USA_R34_NW USA_R50_NE USA_R50_SE USA_R50_SW USA_R50_NW USA_R64_NE USA_R64_SE USA_R64_SW USA_R64_NW USA_POCI USA_ROCI USA_RMW USA_EYE TOKYO_LAT TOKYO_LON TOKYO_GRADE TOKYO_WIND TOKYO_PRES TOKYO_R50_DIR TOKYO_R50_LONG TOKYO_R50_SHORT TOKYO_R30_DIR TOKYO_R30_LONG TOKYO_R30_SHORT TOKYO_LAND CMA_LAT CMA_LON CMA_CAT CMA_WIND CMA_PRES HKO_LAT HKO_LON HKO_CAT HKO_WIND HKO_PRES NEWDELHI_LAT NEWDELHI_LON NEWDELHI_GRADE NEWDELHI_WIND NEWDELHI_PRES NEWDELHI_CI NEWDELHI_DP NEWDELHI_POCI REUNION_LAT REUNION_LON REUNION_TYPE REUNION_WIND REUNION_PRES REUNION_TNUM REUNION_CI REUNION_RMW REUNION_R34_NE REUNION_R34_SE REUNION_R34_SW REUNION_R34_NW REUNION_R50_NE REUNION_R50_SE REUNION_R50_SW REUNION_R50_NW REUNION_R64_NE REUNION_R64_SE REUNION_R64_SW REUNION_R64_NW BOM_LAT BOM_LON BOM_TYPE BOM_WIND BOM_PRES BOM_TNUM BOM_CI BOM_RMW BOM_R34_NE BOM_R34_SE BOM_R34_SW BOM_R34_NW BOM_R50_NE BOM_R50_SE BOM_R50_SW BOM_R50_NW BOM_R64_NE BOM_R64_SE BOM_R64_SW BOM_R64_NW BOM_ROCI BOM_POCI BOM_EYE BOM_POS_METHOD BOM_PRES_METHOD NADI_LAT NADI_LON NADI_CAT NADI_WIND NADI_PRES WELLINGTON_LAT WELLINGTON_LON WELLINGTON_WIND WELLINGTON_PRES DS824_LAT DS824_LON DS824_STAGE DS824_WIND DS824_PRES TD9636_LAT TD9636_LON TD9636_STAGE TD9636_WIND TD9636_PRES TD9635_LAT TD9635_LON TD9635_WIND TD9635_PRES TD9635_ROCI NEUMANN_LAT NEUMANN_LON NEUMANN_CLASS NEUMANN_WIND NEUMANN_PRES MLC_LAT MLC_LON MLC_CLASS MLC_WIND MLC_PRES USA_GUST BOM_GUST BOM_GUST_PER REUNION_GUST REUNION_GUST_PER USA_SEAHGT USA_SEARAD_NE USA_SEARAD_SE USA_SEARAD_SW USA_SEARAD_NW STORM_SPEED STORM_DIR
1870264N11332 1870 21 NA NA NOT_NAMED 1870-09-20 12:00:00 TS 11.0000 -27.9000 main 1201 1201 _____________O -1 11.0000 -27.9000 TS 35 5 268
1870264N11332 1870 21 NA NA NOT_NAMED 1870-09-20 15:00:00 TS 10.9901 -28.1625 main 1232 1232 _____________P -1 10.9901 -28.1625 TS 35 5 270
1870264N11332 1870 21 NA NA NOT_NAMED 1870-09-20 18:00:00 TS 11.0000 -28.4000 main 1252 1252 _____________O -1 11.0000 -28.4000 TS 35 4 277
1870264N11332 1870 21 NA NA NOT_NAMED 1870-09-20 21:00:00 TS 11.0425 -28.6000 main 1273 1269 _____________P -1 11.0425 -28.6000 TS 35 4 284
1870264N11332 1870 21 NA NA NOT_NAMED 1870-09-21 00:00:00 TS 11.1000 -28.8000 main 1289 1289 _____________O -1 11.1000 -28.8000 TS 35 5 283
1870264N11332 1870 21 NA NA NOT_NAMED 1870-09-21 03:00:00 TS 11.1425 -29.0500 main 1320 1317 _____________P -1 11.1425 -29.0500 TS 35 5 282
1870264N11332 1870 21 NA NA NOT_NAMED 1870-09-21 06:00:00 TS 11.2000 -29.3000 main 1337 1337 _____________O -1 11.2000 -29.3000 TS 35 5 289
1870264N11332 1870 21 NA NA NOT_NAMED 1870-09-21 09:00:00 TS 11.2925 -29.5000 main 1355 1355 _____________P -1 11.2925 -29.5000 TS 37 4 297
1870264N11332 1870 21 NA NA NOT_NAMED 1870-09-21 12:00:00 TS 11.4000 -29.7000 main 1372 1372 _____________O -1 11.4000 -29.7000 TS 40 5 295
1870264N11332 1870 21 NA NA NOT_NAMED 1870-09-21 15:00:00 TS 11.5000 -29.9500 main 1390 1400 _____________P -1 11.5000 -29.9500 TS 40 5 292
1870264N11332 1870 21 NA NA NOT_NAMED 1870-09-21 18:00:00 TS 11.6000 -30.2000 main 1418 1418 _____________O -1 11.6000 -30.2000 TS 40 5 294
1870264N11332 1870 21 NA NA NOT_NAMED 1870-09-21 21:00:00 TS 11.7000 -30.4000 main 1436 1436 _____________P -1 11.7000 -30.4000 TS 40 4 297
1870264N11332 1870 21 NA NA NOT_NAMED 1870-09-22 00:00:00 TS 11.8000 -30.6000 main 1455 1455 _____________O -1 11.8000 -30.6000 TS 40 5 294
1870264N11332 1870 21 NA NA NOT_NAMED 1870-09-22 03:00:00 TS 11.9000 -30.8500 main 1473 1484 _____________P -1 11.9000 -30.8500 TS 40 5 292
1870264N11332 1870 21 NA NA NOT_NAMED 1870-09-22 06:00:00 TS 12.0000 -31.1000 main 1502 1502 _____________O -1 12.0000 -31.1000 TS 40 5 292
1870264N11332 1870 21 NA NA NOT_NAMED 1870-09-22 09:00:00 TS 12.0775 -31.3001 main 1521 1521 _____________P -1 12.0775 -31.3001 TS 40 4 297
1870264N11332 1870 21 NA NA NOT_NAMED 1870-09-22 12:00:00 TS 12.2000 -31.5000 main 1540 1540 _____________O -1 12.2000 -31.5000 TS 40 6 309
1870264N11332 1870 21 NA NA NOT_NAMED 1870-09-22 15:00:00 TS 12.4350 -31.7499 main 1556 1556 _____________P -1 12.4350 -31.7499 TS 40 7 316
1870264N11332 1870 21 NA NA NOT_NAMED 1870-09-22 18:00:00 TS 12.7000 -32.0000 main 1582 1582 _____________O -1 12.7000 -32.0000 TS 40 6 317
1870264N11332 1870 21 NA NA NOT_NAMED 1870-09-22 21:00:00 TS 12.8999 -32.2001 main 1600 1600 _____________P -1 12.8999 -32.2001 TS 40 6 316
1870264N11332 1870 21 NA NA NOT_NAMED 1870-09-23 00:00:00 TS 13.1000 -32.4000 main 1618 1618 _____________O -1 13.1000 -32.4000 TS 40 6 316
1870264N11332 1870 21 NA NA NOT_NAMED 1870-09-23 03:00:00 TS 13.3500 -32.6500 main 1635 1635 _____________P -1 13.3500 -32.6500 TS 40 7 316
1870264N11332 1870 21 NA NA NOT_NAMED 1870-09-23 06:00:00 TS 13.6000 -32.9000 main 1665 1665 _____________O -1 13.6000 -32.9000 TS 40 6 316
1870264N11332 1870 21 NA NA NOT_NAMED 1870-09-23 09:00:00 TS 13.7999 -33.1001 main 1684 1684 _____________P -1 13.7999 -33.1001 TS 40 6 316
1870264N11332 1870 21 NA NA NOT_NAMED 1870-09-23 12:00:00 TS 14.0000 -33.3000 main 1704 1704 _____________O -1 14.0000 -33.3000 TS 40 6 316
1870264N11332 1870 21 NA NA NOT_NAMED 1870-09-23 15:00:00 TS 14.2500 -33.5500 main 1723 1723 _____________P -1 14.2500 -33.5500 TS 40 7 316
1870264N11332 1870 21 NA NA NOT_NAMED 1870-09-23 18:00:00 TS 14.5000 -33.8000 main 1754 1754 _____________O -1 14.5000 -33.8000 TS 40 6 316
1870264N11332 1870 21 NA NA NOT_NAMED 1870-09-23 21:00:00 TS 14.7150 -34.0076 main 1775 1775 _____________P -1 14.7150 -34.0076 TS 40 6 316
1870264N11332 1870 21 NA NA NOT_NAMED 1870-09-24 00:00:00 TS 14.9000 -34.2000 main 1795 1795 _____________O -1 14.9000 -34.2000 TS 40 5 312
1870264N11332 1870 21 NA NA NOT_NAMED 1870-09-24 03:00:00 TS 15.0500 -34.3926 main 1817 1816 _____________P -1 15.0500 -34.3926 TS 40 5 308
1870264N11332 1870 21 NA NA NOT_NAMED 1870-09-24 06:00:00 TS 15.2000 -34.6000 main 1838 1838 _____________O -1 15.2000 -34.6000 TS 40 5 306
1870264N11332 1870 21 NA NA NOT_NAMED 1870-09-24 09:00:00 TS 15.3625 -34.8426 main 1859 1859 _____________P -1 15.3625 -34.8426 TS 42 6 310
1870264N11332 1870 21 NA NA NOT_NAMED 1870-09-24 12:00:00 TS 15.6000 -35.1000 main 1891 1891 _____________O -1 15.6000 -35.1000 TS 45 8 321
1870264N11332 1870 21 NA NA NOT_NAMED 1870-09-24 15:00:00 TS 15.9700 -35.3574 main 1925 1925 _____________P -1 15.9700 -35.3574 TS 45 9 329
1870264N11332 1870 21 NA NA NOT_NAMED 1870-09-24 18:00:00 TS 16.4000 -35.6000 main 1948 1948 _____________O -1 16.4000 -35.6000 TS 45 10 333
1870264N11332 1870 21 NA NA NOT_NAMED 1870-09-24 21:00:00 TS 16.8149 -35.8001 main 1972 1972 _____________P -1 16.8149 -35.8001 TS 45 9 334
1870264N11332 1870 21 NA NA NOT_NAMED 1870-09-25 00:00:00 TS 17.2000 -36.0000 main 1997 1997 _____________O -1 17.2000 -36.0000 TS 45 8 329
1870264N11332 1870 21 NA NA NOT_NAMED 1870-09-25 03:00:00 TS 17.5225 -36.2500 main 2032 2032 _____________P -1 17.5225 -36.2500 TS 45 8 322
1870264N11332 1870 21 NA NA NOT_NAMED 1870-09-25 06:00:00 TS 17.8000 -36.5000 main 2057 2057 _____________O -1 17.8000 -36.5000 TS 45 7 321
1870264N11332 1870 21 NA NA NOT_NAMED 1870-09-25 09:00:00 TS 18.0574 -36.7001 main 2075 2075 _____________P -1 18.0574 -36.7001 TS 47 6 323
1870264N11332 1870 21 NA NA NOT_NAMED 1870-09-25 12:00:00 TS 18.3000 -36.9000 main 2092 2092 _____________O -1 18.3000 -36.9000 TS 50 7 319
1870264N11332 1870 21 NA NA NOT_NAMED 1870-09-25 15:00:00 TS 18.5500 -37.1500 main 2117 2117 _____________P -1 18.5500 -37.1500 TS 50 7 316
1870264N11332 1870 21 NA NA NOT_NAMED 1870-09-25 18:00:00 TS 18.8000 -37.4000 main 2134 2132 _____________O -1 18.8000 -37.4000 TS 50 6 318
1870264N11332 1870 21 NA NA NOT_NAMED 1870-09-25 21:00:00 TS 19.0274 -37.6002 main 2151 2149 _____________P -1 19.0274 -37.6002 TS 50 6 323
1870264N11332 1870 21 NA NA NOT_NAMED 1870-09-26 00:00:00 TS 19.3000 -37.8000 main 2167 2165 _____________O -1 19.3000 -37.8000 TS 50 8 327
1870264N11332 1870 21 NA NA NOT_NAMED 1870-09-26 03:00:00 TS 19.6850 -38.0499 main 2182 2182 _____________P -1 19.6850 -38.0499 TS 50 9 329
1870264N11332 1870 21 NA NA NOT_NAMED 1870-09-26 06:00:00 TS 20.1000 -38.3000 main 2208 2207 _____________O -1 20.1000 -38.3000 TS 50 9 331
1870264N11332 1870 21 NA NA NOT_NAMED 1870-09-26 09:00:00 TS 20.4499 -38.5077 main 2225 2224 _____________P -1 20.4499 -38.5077 TS 50 8 332
1870264N11332 1870 21 NA NA NOT_NAMED 1870-09-26 12:00:00 TS 20.8000 -38.7000 main 2243 2242 _____________O -1 20.8000 -38.7000 TS 50 8 334
1870264N11332 1870 21 NA NA NOT_NAMED 1870-09-26 15:00:00 TS 21.2000 -38.9000 main 2261 2260 _____________P -1 21.2000 -38.9000 TS 50 9 335
1870264N11332 1870 21 NA NA NOT_NAMED 1870-09-26 18:00:00 TS 21.6000 -39.1000 main 2280 2279 _____________O -1 21.6000 -39.1000 TS 50 9 334
1870264N11332 1870 21 NA NA NOT_NAMED 1870-09-26 21:00:00 TS 21.9650 -39.3001 main 2298 2298 _____________P -1 21.9650 -39.3001 TS 50 8 332
1870264N11332 1870 21 NA NA NOT_NAMED 1870-09-27 00:00:00 TS 22.3000 -39.5000 main 2316 2316 _____________O -1 22.3000 -39.5000 TS 50 7 330
1870264N11332 1870 21 NA NA NOT_NAMED 1870-09-27 03:00:00 TS 22.6075 -39.7076 main 2335 2335 _____________P -1 22.6075 -39.7076 TS 50 7 328
1870264N11332 1870 21 NA NA NOT_NAMED 1870-09-27 06:00:00 TS 22.9000 -39.9000 main 2355 2354 _____________O -1 22.9000 -39.9000 TS 50 7 332
1870264N11332 1870 21 NA NA NOT_NAMED 1870-09-27 09:00:00 TS 23.2000 -40.0576 main 2374 2374 _____________P -1 23.2000 -40.0576 TS 50 7 335
1870264N11332 1870 21 NA NA NOT_NAMED 1870-09-27 12:00:00 TS 23.5000 -40.2000 main 2384 2384 _____________O -1 23.5000 -40.2000 TS 50 7 335
1870264N11332 1870 21 NA NA NOT_NAMED 1870-09-27 15:00:00 TS 23.8000 -40.3575 main 2403 2396 _____________P -1 23.8000 -40.3575 TS 47 7 335
1870264N11332 1870 21 NA NA NOT_NAMED 1870-09-27 18:00:00 TS 24.1000 -40.5000 main 2403 2400 _____________O -1 24.1000 -40.5000 TS 45 6 340
1870264N11332 1870 21 NA NA NOT_NAMED 1870-09-27 21:00:00 TS 24.4000 -40.6002 main 2404 2401 _____________P -1 24.4000 -40.6002 TS 45 6 343
1870264N11332 1870 21 NA NA NOT_NAMED 1870-09-28 00:00:00 TS 24.7000 -40.7000 main 2405 2402 _____________O -1 24.7000 -40.7000 TS 45 6 338
1870264N11332 1870 21 NA NA NOT_NAMED 1870-09-28 03:00:00 TS 25.0000 -40.8649 main 2416 2411 _____________P -1 25.0000 -40.8649 TS 45 7 336
1870264N11332 1870 21 NA NA NOT_NAMED 1870-09-28 06:00:00 TS 25.3000 -41.0000 main 2418 2410 _____________O -1 25.3000 -41.0000 TS 45 6 347
1870264N11332 1870 21 NA NA NOT_NAMED 1870-09-28 09:00:00 TS 25.6000 -41.0152 main 2410 2403 _____________P -1 25.6000 -41.0152 TS 45 6 1
1870264N11332 1870 21 NA NA NOT_NAMED 1870-09-28 12:00:00 TS 25.9000 -41.0000 main 2403 2397 _____________O -1 25.9000 -41.0000 TS 45 6 358
1870264N11332 1870 21 NA NA NOT_NAMED 1870-09-28 15:00:00 TS 26.2075 -41.0425 main 2397 2397 _____________P -1 26.2075 -41.0425 TS 45 6 352
1870264N11332 1870 21 NA NA NOT_NAMED 1870-09-28 18:00:00 TS 26.5000 -41.1000 main 2400 2396 _____________O -1 26.5000 -41.1000 TS 45 6 349
1870264N11332 1870 21 NA NA NOT_NAMED 1870-09-28 21:00:00 TS 26.7575 -41.1649 main 2404 2401 _____________P -1 26.7575 -41.1649 TS 45 5 350
1870264N11332 1870 21 NA NA NOT_NAMED 1870-09-29 00:00:00 TS 27.0000 -41.2000 main 2401 2397 _____________O -1 27.0000 -41.2000 TS 45 5 359
1870264N11332 1870 21 NA NA NOT_NAMED 1870-09-29 03:00:00 TS 27.2500 -41.1651 main 2392 2375 _____________P -1 27.2500 -41.1651 TS 45 5 10
1870264N11332 1870 21 NA NA NOT_NAMED 1870-09-29 06:00:00 TS 27.5000 -41.1000 main 2375 2354 _____________O -1 27.5000 -41.1000 TS 45 5 11
1870264N11332 1870 21 NA NA NOT_NAMED 1870-09-29 09:00:00 TS 27.7500 -41.0574 main 2354 2328 _____________P -1 27.7500 -41.0574 TS 45 5 10
1870264N11332 1870 21 NA NA NOT_NAMED 1870-09-29 12:00:00 TS 28.0000 -41.0000 main 2328 2311 _____________O -1 28.0000 -41.0000 TS 45 5 15
1870264N11332 1870 21 NA NA NOT_NAMED 1870-09-29 15:00:00 TS 28.2500 -40.9075 main 2301 2285 _____________P -1 28.2500 -40.9075 TS 42 5 20
1870264N11332 1870 21 NA NA NOT_NAMED 1870-09-29 18:00:00 TS 28.5000 -40.8000 main 2285 2264 _____________O -1 28.5000 -40.8000 TS 40 5 19
1870264N11332 1870 21 NA NA NOT_NAMED 1870-09-29 21:00:00 TS 28.6898 -40.7367 main 2269 2243 _____________P -1 28.6898 -40.7367 TS 40 5 20
1870264N11332 1870 21 NA NA NOT_NAMED 1870-09-30 00:00:00 TS 29.0000 -40.6000 main 2243 2195 _____________O -1 29.0000 -40.6000 TS 40 10 23
1870264N11332 1870 21 NA NA NOT_NAMED 1870-09-30 03:00:00 TS 29.5977 -40.2881 main 2195 2144 _____________P -1 29.5977 -40.2881 TS 40 14 25
1870264N11332 1870 21 NA NA NOT_NAMED 1870-09-30 06:00:00 TS 30.3000 -39.9000 main 2144 2104 _____________O -1 30.3000 -39.9000 TS 40 14 25
1870264N11332 1870 21 NA NA NOT_NAMED 1870-09-30 09:00:00 TS 30.8692 -39.6075 main 2099 2061 _____________P -1 30.8692 -39.6075 TS 40 13 27
1870264N11332 1870 21 NA NA NOT_NAMED 1870-09-30 12:00:00 TS 31.5000 -39.2000 main 2061 2016 _____________O -1 31.5000 -39.2000 TS 40 17 32
1870264N11332 1870 21 NA NA NOT_NAMED 1870-09-30 15:00:00 TS 32.3124 -38.5398 main 2022 1983 _____________P -1 32.3124 -38.5398 TS 37 21 37
1870264N11332 1870 21 NA NA NOT_NAMED 1870-09-30 18:00:00 TS 33.2000 -37.7000 main 1983 1952 _____________O -1 33.2000 -37.7000 TS 35 22 38
1870264N11332 1870 21 NA NA NOT_NAMED 1870-09-30 21:00:00 TS 34.0154 -36.9221 main 1958 1942 _____________P -1 34.0154 -36.9221 TS 35 23 43
1870264N11332 1870 21 NA NA NOT_NAMED 1870-10-01 00:00:00 TS 34.9000 -35.8000 main 1937 1830 _____________O -1 34.9000 -35.8000 TS 35 31 51
1870264N11332 1870 21 NA NA NOT_NAMED 1870-10-01 03:00:00 TS 35.9306 -34.0020 main 1822 1711 _____________P -1 35.9306 -34.0020 TS 35 38 56
1870264N11332 1870 21 NA NA NOT_NAMED 1870-10-01 06:00:00 TS 37.0000 -31.9000 main 1708 1632 _____________O -1 37.0000 -31.9000 TS 35 38 57
1870264N11332 1870 21 NA NA NOT_NAMED 1870-10-01 09:00:00 TS 38.0039 -29.9514 main 1632 1574 _____________P -1 38.0039 -29.9514 TS 35 37 57
1870264N11332 1870 21 NA NA NOT_NAMED 1870-10-01 12:00:00 TS 39.0000 -28.0000 main 1576 1426 _____________O -1 39.0000 -28.0000 TS 35 36 57
1870264N11332 1870 21 NA NA NOT_NAMED 1870-10-01 15:00:00 TS 40.0046 -26.0227 main 1417 1239 _____________P -1 40.0046 -26.0227 TS 35 37 57
1870264N11332 1870 21 NA NA NOT_NAMED 1870-10-01 18:00:00 ET 41.0000 -24.0000 main 1228 _____________O -1 41.0000 -24.0000 EX 35 36 57

IBTrACS Databaseについて

本データベースは、米国NOAAが公開する1842年以降の世界の熱帯低気圧のベストトラックデータアーカイブInternational Best Track Archive for Climate Stewardship (IBTrACS)を、ウェブで閲覧しやすい形式に変換したものです。

最終更新日:2021-12-03